Airfield :
LOGIN :

Register | Disclaimer

   EN    FR    IT 

 










Legend :    VFR   Marginal VFR   IFR   Intensive IFR   Very Intensive IFR
Visi :
Ceiling :
>= 8 km
>= 3000ft
5 to 8 km
1000 to 3000 ft
1500m to 5 km
500 to 1000 ft
800 to 1500m
200 to 500 ft
< 800m
< 200 ft
Symbols :   Thunderstorms  Fog  Heavy snow  Heavy precipitations  Wind > 20 kt
SIGMETs :     Misc.  Thunderstorms  Icing  Turbulence  Mountain Waves  Volcanic Ashes







- Airport Elevation : 1649 ft
- IATA code : HHN


EDFH - Frankfurt-Hahn Rhineland-Palatinate

CURRENT METAR :
  • 241950Z 25004KT 9999 FEW036 06/04 Q1035

EXPIRED METARs :
  • 241920Z VRB02KT 9999 FEW047 07/04 Q1035
  • 241850Z 27003KT CAVOK 07/04 Q1035
  • 241820Z 28004KT 9999 FEW029 08/05 Q1034
  • 241750Z 29005KT 9999 FEW035 08/05 Q1034
  • 241720Z 30005KT CAVOK 09/04 Q1034

TAF TAF EDFH
Valid from the 24 at 18:00 until the 25 at 18:00 UTC


241700Z 2418/2518 32005KT 9999 FEW035
BECMG 2506/2509 09006KT
No reported NOTAMs for that airfield.



MET'MAP, your aeronautical weather chart ! - Copyright ORBIFLY December 2007 - Disclaimer

ORBIFLY MET'MAP TEAM :

Programming & Development : Alexandra Zaïnal
Concept & Development : Baudouin d'Aumeries
Co-Development & Prog : Marc-Olivier Méhu
Technical & hardware support : Manuel Goepfert

Contact : metmap@orbifly.com




SOURCES & CREDITS :

   NOAA